Time;durP1;ratioP1;P1;durP2;ratioP2;P2;SDS_P1;SDS_P2;PMS_P1;PMS_P2;Temp;Humidity;BMP_temperature;BMP_pressure;BME280_temperature;BME280_humidity;BME280_pressure;Samples;Min_cycle;Max_cycle;Signal;HPM_P1;HPM_P2
2024/01/05 00:00:48;;;;;;;;;8.00;6.00;;;;;15.91;100.00;99402.13;2104762;28;46671;-64
2024/01/05 00:01:48;;;;;;;;;4.33;1.67;;;;;15.90;100.00;99401.28;2104527;27;46639;-65
2024/01/05 00:02:49;;;;;;;;;4.67;3.00;;;;;15.89;100.00;99394.19;2104752;27;46621;-64
2024/01/05 00:03:49;;;;;;;;;2.00;2.00;;;;;15.88;100.00;99393.34;2104822;28;46354;-65
2024/01/05 00:04:49;;;;;;;;;3.00;2.00;;;;;15.87;100.00;99388.06;2105052;27;46844;-64
2024/01/05 00:05:50;;;;;;;;;18.33;18.00;;;;;15.82;100.00;99396.41;2104599;27;46385;-65
2024/01/05 00:06:50;;;;;;;;;2.33;2.33;;;;;15.83;100.00;99394.59;2104704;28;45860;-66
2024/01/05 00:07:51;;;;;;;;;3.00;3.00;;;;;15.82;100.00;99393.72;2088446;28;46787;-65
2024/01/05 00:08:51;;;;;;;;;3.00;2.67;;;;;15.83;100.00;99395.44;2086852;28;46634;-65
2024/01/05 00:09:51;;;;;;;;;1.33;1.33;;;;;15.84;100.00;99389.13;2088835;28;46586;-66
2024/01/05 00:10:52;;;;;;;;;2.00;2.00;;;;;15.84;100.00;99390.94;2087576;28;47081;-64
2024/01/05 00:11:52;;;;;;;;;1.00;1.00;;;;;15.83;100.00;99397.25;2105296;27;46703;-65
2024/01/05 00:12:53;;;;;;;;;2.00;2.00;;;;;15.83;100.00;99395.44;2106263;27;46247;-65
2024/01/05 00:13:53;;;;;;;;;3.00;3.00;;;;;15.85;100.00;99404.22;2103886;27;46860;-67
2024/01/05 00:14:53;;;;;;;;;3.00;2.00;;;;;15.87;100.00;99399.63;2106524;27;46620;-63
2024/01/05 00:15:54;;;;;;;;;8.00;6.00;;;;;15.87;100.00;99407.66;2104246;27;46391;-63
2024/01/05 00:16:58;;;;;;;;;3.00;3.00;;;;;15.86;100.00;99411.28;2105405;27;45732;-67
2024/01/05 00:17:59;;;;;;;;;3.00;3.00;;;;;15.88;100.00;99404.06;2105073;28;46706;-67
2024/01/05 00:18:59;;;;;;;;;4.00;2.00;;;;;15.92;100.00;99414.53;2106241;27;46235;-67
2024/01/05 00:20:00;;;;;;;;;11.00;10.67;;;;;15.93;100.00;99401.06;2106029;27;46917;-68
2024/01/05 00:21:00;;;;;;;;;14.33;13.67;;;;;15.90;100.00;99406.63;2106668;27;46773;-68
2024/01/05 00:22:01;;;;;;;;;4.67;4.67;;;;;15.94;100.00;99415.31;2106170;28;45946;-66
2024/01/05 00:23:01;;;;;;;;;2.00;2.00;;;;;15.95;100.00;99407.16;2088027;28;46717;-67
2024/01/05 00:24:02;;;;;;;;;5.00;1.00;;;;;15.95;100.00;99411.66;2089334;28;46425;-67
2024/01/05 00:25:03;;;;;;;;;2.00;1.00;;;;;15.95;100.00;99407.16;2106001;27;46533;-66
2024/01/05 00:26:04;;;;;;;;;5.25;2.50;;;;;15.95;100.00;99403.63;2107873;27;46511;-65
2024/01/05 00:27:04;;;;;;;;;4.00;4.00;;;;;15.98;100.00;99414.13;2105940;27;46819;-68
2024/01/05 00:28:05;;;;;;;;;0.00;0.00;;;;;15.97;100.00;99397.22;2106198;27;46640;-66
2024/01/05 00:29:05;;;;;;;;;1.00;1.00;;;;;15.96;100.00;99410.72;2111093;27;46205;-69
2024/01/05 00:30:06;;;;;;;;;2.00;2.00;;;;;15.97;100.00;99417.78;2110700;27;46184;-68
2024/01/05 00:31:11;;;;;;;;;1.25;1.25;;;;;15.95;100.00;99407.16;2106794;27;46149;-66
2024/01/05 00:32:11;;;;;;;;;4.75;4.75;;;;;15.94;100.00;99409.94;2109376;27;46623;-66
2024/01/05 00:33:12;;;;;;;;;0.00;0.00;;;;;15.93;100.00;99419.78;2109845;27;46200;-66
2024/01/05 00:34:12;;;;;;;;;1.00;1.00;;;;;15.93;100.00;99408.22;2106845;27;46363;-65
2024/01/05 00:35:13;;;;;;;;;2.67;1.00;;;;;15.93;100.00;99417.13;2108394;27;46258;-65
2024/01/05 00:36:13;;;;;;;;;4.00;3.00;;;;;15.87;100.00;99410.31;2100494;28;46213;-64
2024/01/05 00:37:14;;;;;;;;;3.33;2.33;;;;;15.86;100.00;99421.13;2102398;28;45391;-66
2024/01/05 00:38:14;;;;;;;;;12.00;11.33;;;;;15.83;100.00;99410.63;2108722;27;45950;-65
2024/01/05 00:39:16;;;;;;;;;2.00;1.00;;;;;15.84;100.00;99412.34;2105094;28;46884;-65
2024/01/05 00:40:16;;;;;;;;;1.00;1.00;;;;;15.83;100.00;99416.84;2099858;27;46927;-67
2024/01/05 00:41:17;;;;;;;;;2.33;2.33;;;;;15.82;100.00;99425.81;2092397;28;45940;-64
2024/01/05 00:42:17;;;;;;;;;1.00;1.00;;;;;15.83;100.00;99419.53;2095199;28;46166;-65
2024/01/05 00:43:17;;;;;;;;;2.00;2.00;;;;;15.85;100.00;99425.63;2108200;27;46856;-65
2024/01/05 00:44:18;;;;;;;;;3.00;2.00;;;;;15.86;100.00;99416.63;2104862;27;46627;-64
2024/01/05 00:45:20;;;;;;;;;0.00;0.00;;;;;15.88;100.00;99413.91;2109219;27;46375;-66
2024/01/05 00:46:20;;;;;;;;;1.00;1.00;;;;;15.87;100.00;99423.69;2087585;28;46647;-66
2024/01/05 00:47:20;;;;;;;;;3.00;1.00;;;;;15.90;100.00;99417.31;2083992;28;45554;-67
2024/01/05 00:48:21;;;;;;;;;1.67;1.67;;;;;15.91;100.00;99415.50;2100789;28;45917;-65
2024/01/05 00:49:21;;;;;;;;;1.00;1.00;;;;;15.92;100.00;99417.22;2107957;27;45207;-66
2024/01/05 00:50:22;;;;;;;;;0.00;0.00;;;;;15.91;100.00;99415.50;2105621;28;46666;-62
2024/01/05 00:51:22;;;;;;;;;0.67;0.67;;;;;15.91;100.00;99413.69;2108628;27;46337;-66
2024/01/05 00:52:22;;;;;;;;;3.67;3.00;;;;;15.92;100.00;99420.75;2104225;27;46779;-65
2024/01/05 00:53:23;;;;;;;;;1.00;1.00;;;;;15.94;100.00;99420.66;2106346;27;46812;-64
2024/01/05 00:54:25;;;;;;;;;2.67;1.00;;;;;15.93;100.00;99425.16;2106551;28;46719;-65
2024/01/05 00:55:26;;;;;;;;;1.00;1.00;;;;;15.92;100.00;99418.06;2109456;27;48208;-64
2024/01/05 00:56:26;;;;;;;;;2.75;1.00;;;;;15.94;100.00;99420.66;2109177;27;46275;-66
2024/01/05 00:57:27;;;;;;;;;2.67;1.00;;;;;15.93;100.00;99422.47;2111526;27;46287;-66
2024/01/05 00:58:28;;;;;;;;;1.00;1.00;;;;;15.89;100.00;99420.97;2111117;27;48254;-63
2024/01/05 00:59:28;;;;;;;;;3.25;1.00;;;;;15.90;100.00;99417.31;2107540;27;46060;-65
2024/01/05 01:00:29;;;;;;;;;0.00;0.00;;;;;15.89;100.00;99415.59;2104675;27;46243;-66
2024/01/05 01:01:29;;;;;;;;;0.33;0.33;;;;;15.89;100.00;99429.84;2105891;28;45913;-67
2024/01/05 01:02:29;;;;;;;;;2.00;1.00;;;;;15.79;100.00;99414.47;2096077;28;46322;-65
2024/01/05 01:03:30;;;;;;;;;0.33;0.33;;;;;15.86;100.00;99421.13;2098742;28;45580;-64
2024/01/05 01:04:30;;;;;;;;;2.00;0.67;;;;;15.88;100.00;99427.28;2107101;27;46559;-65
2024/01/05 01:05:30;;;;;;;;;1.00;1.00;;;;;15.90;100.00;99428.03;2112806;27;47658;-63
2024/01/05 01:06:31;;;;;;;;;0.00;0.00;;;;;15.91;100.00;99428.88;2108393;27;46568;-58
2024/01/05 01:07:31;;;;;;;;;0.67;0.00;;;;;15.89;100.00;99429.84;2106393;27;45943;-65
2024/01/05 01:08:31;;;;;;;;;0.00;0.00;;;;;15.88;100.00;99430.81;2107134;27;46622;-65
2024/01/05 01:09:32;;;;;;;;;0.00;0.00;;;;;15.86;100.00;99435.38;2107161;27;46531;-65
2024/01/05 01:10:32;;;;;;;;;0.00;0.00;;;;;15.87;100.00;99436.22;2105740;28;45227;-65
2024/01/05 01:11:32;;;;;;;;;1.33;0.00;;;;;15.87;100.00;99423.69;2097466;28;46834;-63
2024/01/05 01:12:33;;;;;;;;;0.00;0.00;;;;;15.88;100.00;99435.28;2096521;28;46280;-65
2024/01/05 01:13:33;;;;;;;;;1.00;0.00;;;;;15.88;100.00;99441.50;2105672;28;46305;-66
2024/01/05 01:14:33;;;;;;;;;0.33;0.00;;;;;15.88;100.00;99438.84;2097135;28;47129;-64
2024/01/05 01:15:34;;;;;;;;;0.67;0.67;;;;;15.76;100.00;99436.94;2097193;28;45263;-64
2024/01/05 01:16:34;;;;;;;;;0.00;0.00;;;;;15.76;100.00;99460.16;2106044;27;46924;-63
2024/01/05 01:17:35;;;;;;;;;0.00;0.00;;;;;15.75;100.00;99451.25;2106438;27;46277;-65
2024/01/05 01:18:36;;;;;;;;;0.00;0.00;;;;;15.71;100.00;99427.47;2105719;28;47089;-63
2024/01/05 01:19:36;;;;;;;;;1.00;0.00;;;;;15.71;100.00;99432.81;2097907;28;47063;-64
2024/01/05 01:20:36;;;;;;;;;0.00;0.00;;;;;15.62;100.00;99442.25;2089315;28;46349;-64
2024/01/05 01:21:37;;;;;;;;;0.00;0.00;;;;;15.58;100.00;99452.25;2096655;28;46887;-62
2024/01/05 01:22:38;;;;;;;;;0.25;0.25;;;;;15.55;100.00;99455.13;2106570;27;46610;-64
2024/01/05 01:23:38;;;;;;;;;0.00;0.00;;;;;15.69;100.00;99453.44;2105881;28;46638;-65
2024/01/05 01:24:39;;;;;;;;;0.33;0.00;;;;;15.70;100.00;99444.47;2106352;27;46380;-66
2024/01/05 01:25:39;;;;;;;;;0.00;0.00;;;;;15.68;100.00;99457.09;2107672;27;46466;-66
2024/01/05 01:26:39;;;;;;;;;0.00;0.00;;;;;15.63;100.00;99457.38;2105941;28;46866;-63
2024/01/05 01:27:40;;;;;;;;;1.00;0.00;;;;;15.68;100.00;99454.41;2107339;27;45231;-63
2024/01/05 01:28:40;;;;;;;;;0.00;0.00;;;;;15.66;100.00;99454.50;2097957;28;46248;-64
2024/01/05 01:29:40;;;;;;;;;0.00;0.00;;;;;15.64;100.00;99451.06;2098170;28;46653;-65
2024/01/05 01:30:41;;;;;;;;;0.00;0.00;;;;;15.67;100.00;99448.19;2106925;27;46260;-64
2024/01/05 01:31:42;;;;;;;;;0.00;0.00;;;;;15.68;100.00;99446.38;2096705;28;46679;-62
2024/01/05 01:32:42;;;;;;;;;0.00;0.00;;;;;15.67;100.00;99447.34;2103485;28;47948;-63
2024/01/05 01:33:43;;;;;;;;;0.00;0.00;;;;;15.65;100.00;99455.47;2108331;27;46256;-64
2024/01/05 01:34:43;;;;;;;;;0.00;0.00;;;;;15.65;100.00;99449.25;2109594;27;47046;-65
2024/01/05 01:35:43;;;;;;;;;0.00;0.00;;;;;15.65;100.00;99458.13;2102566;28;46541;-66
2024/01/05 01:36:44;;;;;;;;;0.00;0.00;;;;;15.65;100.00;99451.94;2097219;28;46433;-65
2024/01/05 01:37:44;;;;;;;;;0.00;0.00;;;;;15.64;100.00;99456.44;2105450;28;46806;-64
2024/01/05 01:38:44;;;;;;;;;0.00;0.00;;;;;15.64;100.00;99463.59;2106481;27;47704;-68
2024/01/05 01:39:45;;;;;;;;;0.00;0.00;;;;;15.65;100.00;99465.31;2105679;27;46826;-66
2024/01/05 01:40:46;;;;;;;;;0.00;0.00;;;;;15.61;100.00;99461.94;2103098;28;46316;-66
2024/01/05 01:41:47;;;;;;;;;0.00;0.00;;;;;15.61;100.00;99464.63;2099427;27;47233;-65
2024/01/05 01:42:49;;;;;;;;;0.33;0.00;;;;;15.59;100.00;99455.81;2109085;27;47028;-65
2024/01/05 01:43:49;;;;;;;;;0.00;0.00;;;;;15.58;100.00;99462.97;2111687;27;47311;-65
2024/01/05 01:44:50;;;;;;;;;0.00;0.00;;;;;15.56;100.00;99461.34;2107024;27;46624;-63
2024/01/05 01:45:57;;;;;;;;;0.00;0.00;;;;;15.59;100.00;99467.38;2111086;27;46854;-66
2024/01/05 01:46:58;;;;;;;;;0.00;0.00;;;;;15.57;100.00;99465.75;2110728;27;47307;-65
2024/01/05 01:47:58;;;;;;;;;0.00;0.00;;;;;15.58;100.00;99465.63;2102215;28;46901;-66
2024/01/05 01:48:59;;;;;;;;;0.00;0.00;;;;;15.60;100.00;99462.91;2099414;28;47908;-68
2024/01/05 01:50:00;;;;;;;;;0.00;0.00;;;;;15.59;100.00;99472.72;2100477;28;45889;-65
2024/01/05 01:51:00;;;;;;;;;0.00;0.00;;;;;15.60;100.00;99468.25;2104830;28;46667;-68
2024/01/05 01:52:01;;;;;;;;;0.00;0.00;;;;;15.60;100.00;99471.78;2113155;27;45228;-65
2024/01/05 01:53:02;;;;;;;;;0.00;0.00;;;;;15.55;100.00;99464.97;2112481;27;45795;-67
2024/01/05 01:54:05;;;;;;;;;1.00;0.00;;;;;15.55;100.00;99465.84;2114954;27;46246;-66
2024/01/05 01:55:07;;;;;;;;;0.00;0.00;;;;;15.57;100.00;99468.41;2113078;27;47070;-63
2024/01/05 01:56:10;;;;;;;;;1.00;0.00;;;;;15.57;100.00;99469.28;2108316;27;46918;-62
2024/01/05 01:57:11;;;;;;;;;0.00;0.00;;;;;15.58;100.00;99470.97;2095781;28;46362;-61
2024/01/05 01:58:15;;;;;;;;;0.00;0.00;;;;;15.62;100.00;99484.19;2094841;27;46274;-62
2024/01/05 01:59:16;;;;;;;;;0.00;0.00;;;;;15.59;100.00;99477.19;2108950;27;45934;-60
2024/01/05 02:00:16;;;;;;;;;0.50;0.00;;;;;15.60;100.00;99473.59;2097487;28;46808;-62
2024/01/05 02:01:17;;;;;;;;;0.00;0.00;;;;;15.58;100.00;99470.97;2105375;27;45631;-62
2024/01/05 02:02:18;;;;;;;;;0.00;0.00;;;;;15.58;100.00;99481.69;2112877;27;46775;-65
2024/01/05 02:03:19;;;;;;;;;0.00;0.00;;;;;15.59;100.00;99477.19;2112584;27;46793;-66
2024/01/05 02:04:22;;;;;;;;;0.00;0.00;;;;;15.60;100.00;99482.47;2112488;27;46518;-64
2024/01/05 02:05:22;;;;;;;;;0.75;0.00;;;;;15.58;100.00;99470.97;2110173;27;47480;-65
2024/01/05 02:06:23;;;;;;;;;0.00;0.00;;;;;15.59;100.00;99470.06;2091691;28;46597;-67
2024/01/05 02:07:23;;;;;;;;;0.00;0.00;;;;;15.60;100.00;99479.81;2092042;28;46912;-65
2024/01/05 02:08:23;;;;;;;;;0.00;0.00;;;;;15.57;100.00;99476.44;2113049;27;46120;-65
2024/01/05 02:09:24;;;;;;;;;0.00;0.00;;;;;15.53;100.00;99481.13;2108246;27;45596;-66
2024/01/05 02:10:25;;;;;;;;;0.00;0.00;;;;;15.52;100.00;99468.72;2109971;27;45630;-64
2024/01/05 02:11:25;;;;;;;;;0.00;0.00;;;;;15.52;100.00;99481.22;2109489;27;45958;-63
2024/01/05 02:12:25;;;;;;;;;0.00;0.00;;;;;15.52;100.00;99470.53;2105927;27;45923;-63
2024/01/05 02:13:26;;;;;;;;;0.00;0.00;;;;;15.52;100.00;99475.88;2098252;28;45611;-66
2024/01/05 02:14:27;;;;;;;;;0.00;0.00;;;;;15.52;100.00;99468.72;2109433;27;46810;-65
2024/01/05 02:15:27;;;;;;;;;0.00;0.00;;;;;15.54;100.00;99472.13;2109496;27;46731;-65
2024/01/05 02:16:27;;;;;;;;;0.00;0.00;;;;;15.54;100.00;99469.47;2103591;27;46164;-63
2024/01/05 02:17:33;;;;;;;;;0.00;0.00;;;;;15.56;100.00;99461.34;2108414;27;46821;-67
2024/01/05 02:18:33;;;;;;;;;0.00;0.00;;;;;15.55;100.00;99470.31;2096772;28;45811;-67
2024/01/05 02:19:33;;;;;;;;;0.00;0.00;;;;;15.54;100.00;99466.78;2111772;27;45584;-66
2024/01/05 02:20:34;;;;;;;;;0.00;0.00;;;;;15.55;100.00;99465.84;2112982;27;46312;-65
2024/01/05 02:21:42;;;;;;;;;0.00;0.00;;;;;15.55;100.00;99468.50;2114198;27;45469;-65
2024/01/05 02:22:51;;;;;;;;;0.00;0.00;;;;;15.57;100.00;99468.41;2112027;27;46797;-65
2024/01/05 02:23:52;;;;;;;;;0.00;0.00;;;;;15.55;100.00;99465.84;2106364;27;46782;-66
2024/01/05 02:24:52;;;;;;;;;0.00;0.00;;;;;15.56;100.00;99467.56;2114364;27;45149;-64
2024/01/05 02:25:57;;;;;;;;;0.00;0.00;;;;;15.57;100.00;99457.72;2112969;27;45980;-64
2024/01/05 02:26:57;;;;;;;;;0.00;0.00;;;;;15.54;100.00;99469.47;2112816;27;46742;-67
2024/01/05 02:27:57;;;;;;;;;0.00;0.00;;;;;15.54;100.00;99464.13;2114094;27;46242;-64
2024/01/05 02:28:58;;;;;;;;;0.00;0.00;;;;;15.52;100.00;99465.19;2104038;28;46575;-62
2024/01/05 02:29:58;;;;;;;;;0.00;0.00;;;;;15.55;100.00;99463.16;2099499;28;46158;-63
2024/01/05 02:30:58;;;;;;;;;0.00;0.00;;;;;15.57;100.00;99473.75;2102307;28;46822;-63
2024/01/05 02:31:59;;;;;;;;;0.00;0.00;;;;;15.56;100.00;99470.22;2103181;28;46214;-65
2024/01/05 02:32:59;;;;;;;;;0.00;0.00;;;;;15.56;100.00;99477.38;2114240;27;45567;-67
2024/01/05 02:33:59;;;;;;;;;0.00;0.00;;;;;15.54;100.00;99468.59;2112559;27;46247;-62
2024/01/05 02:35:00;;;;;;;;;0.00;0.00;;;;;15.53;100.00;99482.94;2113844;27;45459;-65
2024/01/05 02:36:00;;;;;;;;;0.00;0.00;;;;;15.51;100.00;99468.81;2113618;27;45419;-66
2024/01/05 02:37:00;;;;;;;;;0.00;0.00;;;;;15.53;100.00;99475.78;2108305;27;46274;-63
2024/01/05 02:38:01;;;;;;;;;0.00;0.00;;;;;15.48;100.00;99475.19;2104764;28;46132;-65
2024/01/05 02:39:01;;;;;;;;;0.00;0.00;;;;;15.52;100.00;99482.06;2107324;27;45120;-66
2024/01/05 02:40:02;;;;;;;;;2.00;2.00;;;;;15.52;100.00;99482.06;2097372;28;46906;-64
2024/01/05 02:41:05;;;;;;;;;2.75;1.00;;;;;15.54;100.00;99477.50;2097105;28;47165;-66
2024/01/05 02:42:05;;;;;;;;;1.50;1.50;;;;;15.56;99.36;99486.28;2106369;27;45763;-65
2024/01/05 02:43:06;;;;;;;;;1.00;1.00;;;;;15.55;99.12;99483.69;2103159;27;46753;-66
2024/01/05 02:44:06;;;;;;;;;0.00;0.00;;;;;15.53;98.40;99486.47;2105480;27;46652;-63
2024/01/05 02:45:07;;;;;;;;;3.33;2.00;;;;;15.54;98.18;99485.50;2105351;27;45850;-67
2024/01/05 02:46:09;;;;;;;;;0.67;0.00;;;;;15.52;98.07;99498.13;2104923;28;46307;-66
2024/01/05 02:47:09;;;;;;;;;0.00;0.00;;;;;15.51;97.98;99484.84;2105520;27;46438;-65
2024/01/05 02:48:09;;;;;;;;;2.00;0.00;;;;;15.51;98.03;99484.84;2105572;27;46705;-63
2024/01/05 02:49:10;;;;;;;;;0.00;0.00;;;;;15.49;97.81;99481.38;2103684;27;45868;-67
2024/01/05 02:50:10;;;;;;;;;0.00;0.00;;;;;15.46;97.14;99482.44;2105370;27;46590;-65
2024/01/05 02:51:10;;;;;;;;;0.00;0.00;;;;;15.45;96.68;99477.19;2105519;28;46662;-63
2024/01/05 02:52:11;;;;;;;;;0.00;0.00;;;;;15.44;97.90;99467.44;2107805;27;46909;-66
2024/01/05 02:53:11;;;;;;;;;0.00;0.00;;;;;15.45;97.74;99471.84;2107742;27;46677;-65
2024/01/05 02:54:11;;;;;;;;;0.00;0.00;;;;;15.46;97.78;99477.09;2105956;27;45213;-65
2024/01/05 02:55:13;;;;;;;;;0.00;0.00;;;;;15.46;97.77;99489.59;2098763;28;46297;-65
2024/01/05 02:56:22;;;;;;;;;0.00;0.00;;;;;15.47;96.30;99478.81;2096364;28;45544;-67
2024/01/05 02:57:24;;;;;;;;;0.00;0.00;;;;;15.45;96.34;99480.72;2111495;27;46350;-67
2024/01/05 02:58:24;;;;;;;;;1.00;0.00;;;;;15.43;95.89;99471.94;2108576;27;45654;-66
2024/01/05 02:59:24;;;;;;;;;1.00;0.00;;;;;15.40;97.12;99481.97;2105685;27;45440;-64
2024/01/05 03:00:25;;;;;;;;;0.00;0.00;;;;;15.39;96.87;99481.09;2096520;28;46250;-64
2024/01/05 03:01:25;;;;;;;;;1.00;0.00;;;;;15.38;96.89;99481.22;2096780;28;45837;-64
2024/01/05 03:02:25;;;;;;;;;0.00;0.00;;;;;15.40;96.59;99481.97;2105288;28;46676;-63
2024/01/05 03:03:26;;;;;;;;;0.00;0.00;;;;;15.39;97.07;99477.56;2105402;27;46304;-63
2024/01/05 03:04:26;;;;;;;;;2.00;2.00;;;;;15.37;96.94;99483.00;2105549;28;46522;-64
2024/01/05 03:05:26;;;;;;;;;0.00;0.00;;;;;15.37;96.72;99491.00;2105085;27;46303;-65
2024/01/05 03:06:27;;;;;;;;;0.00;0.00;;;;;15.38;97.20;99484.75;2107632;27;46350;-66
2024/01/05 03:07:28;;;;;;;;;0.00;0.00;;;;;15.39;97.37;99482.94;2113624;27;46538;-63
2024/01/05 03:08:28;;;;;;;;;0.00;0.00;;;;;15.36;97.10;99483.94;2105120;27;47447;-64
2024/01/05 03:09:28;;;;;;;;;0.00;0.00;;;;;15.36;96.95;99483.94;2105467;27;45955;-65
2024/01/05 03:10:29;;;;;;;;;0.00;0.00;;;;;15.30;97.01;99490.53;2100051;28;46739;-62
2024/01/05 03:11:29;;;;;;;;;0.00;0.00;;;;;15.19;97.17;99478.78;2103331;27;46198;-64
2024/01/05 03:12:29;;;;;;;;;0.00;0.00;;;;;15.16;98.78;99478.97;2099486;27;46246;-62
2024/01/05 03:13:30;;;;;;;;;0.00;0.00;;;;;15.21;98.59;99491.09;2104440;28;46611;-64
2024/01/05 03:14:30;;;;;;;;;0.00;0.00;;;;;15.17;98.66;99486.88;2102469;27;46500;-64
2024/01/05 03:15:30;;;;;;;;;0.00;0.00;;;;;15.17;99.17;99483.34;2105156;28;46870;-66
2024/01/05 03:16:31;;;;;;;;;1.00;0.00;;;;;15.15;99.51;99491.47;2105827;27;46329;-66
2024/01/05 03:17:31;;;;;;;;;0.00;0.00;;;;;15.11;99.67;99494.41;2096892;28;46475;-63
2024/01/05 03:18:31;;;;;;;;;0.00;0.00;;;;;15.14;100.00;99488.91;2103090;28;47133;-63
2024/01/05 03:19:32;;;;;;;;;0.00;0.00;;;;;15.10;99.68;99492.69;2107910;27;46192;-63
2024/01/05 03:20:32;;;;;;;;;0.00;0.00;;;;;15.08;99.45;99491.91;2101323;27;46962;-66
2024/01/05 03:21:33;;;;;;;;;0.00;0.00;;;;;15.06;100.00;99492.00;2105860;27;46587;-63
2024/01/05 03:22:33;;;;;;;;;0.00;0.00;;;;;15.05;100.00;99500.13;2105968;27;45207;-64
2024/01/05 03:23:34;;;;;;;;;0.00;0.00;;;;;15.05;100.00;99500.13;2105136;28;46521;-64
2024/01/05 03:24:34;;;;;;;;;0.00;0.00;;;;;15.04;100.00;99495.72;2096788;28;46246;-64
2024/01/05 03:25:34;;;;;;;;;0.00;0.00;;;;;15.02;100.00;99496.69;2095206;28;46885;-61
2024/01/05 03:26:35;;;;;;;;;1.00;0.00;;;;;15.04;100.00;99493.91;2105355;28;47068;-66
2024/01/05 03:27:36;;;;;;;;;0.00;0.00;;;;;15.11;100.00;99491.72;2106686;27;46447;-65
2024/01/05 03:28:38;;;;;;;;;0.00;0.00;;;;;15.11;99.99;99500.59;2097991;27;47269;-62
2024/01/05 03:29:39;;;;;;;;;0.00;0.00;;;;;15.08;99.90;99492.78;2103721;27;46100;-64
2024/01/05 03:30:41;;;;;;;;;0.00;0.00;;;;;15.12;100.00;99496.13;2086665;28;46425;-65
2024/01/05 03:31:45;;;;;;;;;0.00;0.00;;;;;15.10;100.00;99498.88;2086134;28;45641;-63
2024/01/05 03:32:45;;;;;;;;;0.00;0.00;;;;;15.11;100.00;99492.59;2111081;27;46765;-62
2024/01/05 03:33:46;;;;;;;;;0.00;0.00;;;;;15.11;100.00;99491.72;2107283;27;45951;-64
2024/01/05 03:34:46;;;;;;;;;0.00;0.00;;;;;15.10;99.99;99492.69;2104941;28;46741;-65
2024/01/05 03:35:46;;;;;;;;;0.00;0.00;;;;;15.08;100.00;99492.78;2107296;27;46477;-63
2024/01/05 03:36:47;;;;;;;;;0.00;0.00;;;;;15.07;100.00;99485.72;2104750;27;45919;-62
2024/01/05 03:37:48;;;;;;;;;0.00;0.00;;;;;15.08;100.00;99499.94;2095278;28;49489;-61
2024/01/05 03:38:48;;;;;;;;;1.00;0.00;;;;;15.08;100.00;99490.09;2097263;27;46019;-64
2024/01/05 03:39:48;;;;;;;;;0.00;0.00;;;;;15.07;100.00;99495.53;2113855;27;47193;-63
2024/01/05 03:40:49;;;;;;;;;0.00;0.00;;;;;15.06;100.00;99491.16;2106559;27;45188;-63
2024/01/05 03:41:49;;;;;;;;;0.00;0.00;;;;;15.06;100.00;99491.16;2106293;27;46159;-63
2024/01/05 03:42:49;;;;;;;;;0.00;0.00;;;;;15.05;100.00;99489.44;2109069;27;46411;-67
2024/01/05 03:43:50;;;;;;;;;0.00;0.00;;;;;15.03;100.00;99489.53;2105047;27;46193;-63
2024/01/05 03:44:50;;;;;;;;;0.00;0.00;;;;;15.03;100.00;99497.53;2105384;27;46813;-66
2024/01/05 03:45:50;;;;;;;;;0.00;0.00;;;;;15.02;100.00;99504.69;2112091;27;47205;-65
2024/01/05 03:46:51;;;;;;;;;0.00;0.00;;;;;15.04;100.00;99495.72;2109115;27;45564;-65
2024/01/05 03:47:51;;;;;;;;;0.00;0.00;;;;;15.02;100.00;99496.69;2109843;27;45878;-64
2024/01/05 03:48:51;;;;;;;;;0.00;0.00;;;;;15.03;100.00;99497.53;2088389;28;46394;-64
2024/01/05 03:49:52;;;;;;;;;0.00;0.00;;;;;15.00;100.00;99498.59;2089835;28;46816;-65
2024/01/05 03:50:52;;;;;;;;;0.00;0.00;;;;;14.99;100.00;99498.66;2107936;27;45497;-62
2024/01/05 03:51:53;;;;;;;;;0.00;0.00;;;;;15.00;100.00;99497.72;2109849;27;47172;-64
2024/01/05 03:52:53;;;;;;;;;0.00;0.00;;;;;15.00;100.00;99492.38;2106869;27;45774;-65
2024/01/05 03:53:53;;;;;;;;;0.00;0.00;;;;;15.01;100.00;99496.78;2109228;27;46239;-66
2024/01/05 03:54:54;;;;;;;;;0.00;0.00;;;;;14.98;100.00;99496.94;2106838;27;47321;-63
2024/01/05 03:55:57;;;;;;;;;0.00;0.00;;;;;15.01;100.00;99494.09;2106345;28;45705;-65
2024/01/05 03:56:58;;;;;;;;;0.00;0.00;;;;;15.00;100.00;99495.91;2113955;27;47829;-63
2024/01/05 03:57:58;;;;;;;;;0.00;0.00;;;;;15.00;100.00;99501.25;2109564;27;46720;-63
2024/01/05 03:58:58;;;;;;;;;0.00;0.00;;;;;14.99;100.00;99496.88;2102523;28;46194;-64
2024/01/05 03:59:59;;;;;;;;;0.00;0.00;;;;;14.99;100.00;99498.66;2101022;28;46575;-61
2024/01/05 04:01:00;;;;;;;;;0.00;0.00;;;;;14.98;100.00;99504.94;2105858;27;47051;-62
2024/01/05 04:02:01;;;;;;;;;0.00;0.00;;;;;14.97;100.00;99504.09;2106058;28;46206;-61
2024/01/05 04:03:01;;;;;;;;;0.00;0.00;;;;;14.97;100.00;99500.56;2109717;27;45486;-62
2024/01/05 04:04:01;;;;;;;;;0.00;0.00;;;;;14.97;100.00;99506.75;2097124;28;46800;-60
2024/01/05 04:05:02;;;;;;;;;0.00;0.00;;;;;14.98;100.00;99512.97;2105412;28;46122;-59
2024/01/05 04:06:03;;;;;;;;;0.00;0.00;;;;;14.96;100.00;99518.41;2109215;27;46519;-61
2024/01/05 04:07:03;;;;;;;;;0.00;0.00;;;;;14.93;100.00;99507.91;2112507;27;46662;-61
2024/01/05 04:08:04;;;;;;;;;0.00;0.00;;;;;14.95;100.00;99522.03;2107158;27;46126;-65
2024/01/05 04:09:05;;;;;;;;;0.00;0.00;;;;;14.96;100.00;99518.41;2106059;28;47771;-63
2024/01/05 04:10:06;;;;;;;;;0.00;0.00;;;;;14.94;100.00;99516.78;2111585;27;46062;-64
2024/01/05 04:11:07;;;;;;;;;0.00;0.00;;;;;14.94;100.00;99512.28;2100500;28;46896;-64
2024/01/05 04:12:07;;;;;;;;;1.00;0.00;;;;;14.93;100.00;99529.28;2098742;28;46685;-64
2024/01/05 04:13:07;;;;;;;;;0.00;0.00;;;;;14.93;100.00;99521.25;2114727;27;46520;-60
2024/01/05 04:14:08;;;;;;;;;1.00;0.00;;;;;14.91;100.00;99523.16;2108341;27;46371;-62
2024/01/05 04:15:09;;;;;;;;;0.00;0.00;;;;;14.87;100.00;99532.31;2112108;27;46397;-64
2024/01/05 04:16:09;;;;;;;;;0.00;0.00;;;;;14.85;100.00;99525.31;2111461;27;47258;-64
2024/01/05 04:17:11;;;;;;;;;0.00;0.00;;;;;14.85;100.00;99530.66;2109565;27;46701;-63
2024/01/05 04:18:12;;;;;;;;;0.00;0.00;;;;;14.84;100.00;99526.28;2113636;27;45487;-65
2024/01/05 04:19:12;;;;;;;;;0.00;0.00;;;;;14.84;100.00;99523.59;2108114;27;45749;-66
2024/01/05 04:20:12;;;;;;;;;0.00;0.00;;;;;14.83;100.00;99520.06;2106117;28;48073;-63
2024/01/05 04:21:14;;;;;;;;;0.00;0.00;;;;;14.83;100.00;99520.06;2112333;27;45641;-65
2024/01/05 04:22:14;;;;;;;;;0.00;0.00;;;;;14.85;100.00;99530.66;2107968;27;46790;-62
2024/01/05 04:23:14;;;;;;;;;0.00;0.00;;;;;14.85;100.00;99522.66;2112076;27;45762;-66
2024/01/05 04:24:14;;;;;;;;;0.00;0.00;;;;;14.84;100.00;99520.94;2110973;27;46264;-65
2024/01/05 04:25:15;;;;;;;;;0.00;0.00;;;;;14.83;100.00;99525.41;2107245;27;47043;-64
2024/01/05 04:26:15;;;;;;;;;0.00;0.00;;;;;14.84;100.00;99519.13;2104971;27;45833;-62
2024/01/05 04:27:16;;;;;;;;;0.00;0.00;;;;;14.83;100.00;99525.41;2104132;27;46950;-67
2024/01/05 04:28:16;;;;;;;;;0.00;0.00;;;;;14.85;100.00;99520.84;2106371;28;45947;-63
2024/01/05 04:29:17;;;;;;;;;0.00;0.00;;;;;14.87;100.00;99515.44;2106018;27;45926;-64
2024/01/05 04:30:17;;;;;;;;;0.00;0.00;;;;;14.87;100.00;99516.28;2103502;27;45906;-62
2024/01/05 04:31:17;;;;;;;;;0.00;0.00;;;;;14.88;100.00;99514.47;2106134;28;45658;-63
2024/01/05 04:32:18;;;;;;;;;0.00;0.00;;;;;14.89;100.00;99513.53;2106138;27;46552;-63
2024/01/05 04:33:18;;;;;;;;;0.00;0.00;;;;;14.88;100.00;99518.00;2106023;27;46175;-63
2024/01/05 04:34:18;;;;;;;;;0.00;0.00;;;;;14.88;100.00;99510.00;2106118;27;46834;-64
2024/01/05 04:35:19;;;;;;;;;0.00;0.00;;;;;14.87;100.00;99510.09;2108140;27;45198;-61
2024/01/05 04:36:19;;;;;;;;;0.00;0.00;;;;;14.86;100.00;99508.34;2107273;27;46560;-63
2024/01/05 04:37:20;;;;;;;;;0.00;0.00;;;;;14.83;100.00;99513.88;2095633;28;46782;-64
2024/01/05 04:38:20;;;;;;;;;0.00;0.00;;;;;14.85;100.00;99506.63;2087642;28;47952;-62
2024/01/05 04:39:20;;;;;;;;;0.00;0.00;;;;;14.85;100.00;99514.63;2105986;28;46249;-61
2024/01/05 04:40:21;;;;;;;;;0.00;0.00;;;;;14.85;100.00;99509.28;2109606;27;45318;-64
2024/01/05 04:41:22;;;;;;;;;0.00;0.00;;;;;14.84;100.00;99515.59;2111500;27;45748;-60
2024/01/05 04:42:22;;;;;;;;;0.00;0.00;;;;;14.83;100.00;99520.06;2107900;27;46557;-62
2024/01/05 04:43:23;;;;;;;;;0.00;0.00;;;;;14.79;100.00;99510.53;2094020;28;46612;-59